CDT,Max TemperatureF,Mean TemperatureF,Min TemperatureF,Max Dew PointF,MeanDew PointF,Min DewpointF,Max Humidity, Mean Humidity, Min Humidity, Max Sea Level PressureIn, Mean Sea Level PressureIn, Min Sea Level PressureIn, Max VisibilityMiles, Mean VisibilityMiles, Min VisibilityMiles, Max Wind SpeedMPH, Mean Wind SpeedMPH, Max Gust SpeedMPH,PrecipitationIn, CloudCover, Events, WindDirDegrees
2012-10-1,82,72,61,59,56,53,90,65,39,29.97,29.91,29.87,10,10,10,22,9,25,0.00,2,,322
2012-10-2,79,68,57,54,48,43,78,53,28,30.06,29.99,29.92,10,10,10,18,7,23,0.00,1,,334
2012-10-3,88,72,56,56,49,46,67,47,26,29.94,29.90,29.84,10,10,10,18,9,24,0.00,0,,176
2012-10-4,86,73,60,66,62,55,87,68,48,30.11,30.02,29.91,10,10,5,15,6,25,0.00,2,,338
2012-10-5,79,68,57,64,58,54,93,76,58,30.14,30.06,29.94,10,8,2,16,7,20,0.00,5,,53
2012-10-6,61,54,46,55,50,40,100,82,63,30.22,30.12,30.04,10,7,2,21,14,25,0.01,8,Rain,36
2012-10-7,51,47,43,41,38,36,83,71,59,30.30,30.25,30.19,10,10,8,20,10,23,T,8,Rain,47
2012-10-8,71,54,36,53,43,35,100,75,49,30.26,30.17,30.02,10,10,2,12,3,15,0.00,4,,145
2012-10-9,83,69,55,59,56,51,93,68,43,30.01,29.94,29.86,10,10,10,26,12,36,0.00,1,,204
2012-10-10,76,67,58,61,58,53,100,79,57,30.16,30.06,29.94,10,10,7,15,7,17,0.00,3,,37
2012-10-11,86,73,59,69,62,57,100,76,51,30.11,30.06,29.98,10,5,0,20,6,25,0.00,5,Fog,84
2012-10-12,86,78,70,69,66,62,90,68,45,30.16,30.04,29.96,10,9,2,21,10,28,0.00,5,,156
2012-10-13,86,76,66,70,68,63,93,76,59,30.03,29.91,29.79,10,10,7,25,13,35,0.48,5,Rain-Thunderstorm,186
2012-10-14,81,67,53,64,52,43,93,61,28,30.15,30.07,29.94,10,10,10,17,6,22,0.00,0,Rain,357
2012-10-15,80,65,50,55,50,45,93,61,28,30.15,30.07,29.95,10,10,10,13,5,16,0.00,0,,185
2012-10-16,77,70,63,63,57,52,78,68,58,29.93,29.80,29.70,10,10,10,22,12,28,0.00,0,,202
2012-10-17,88,74,60,64,56,44,93,58,22,29.78,29.68,29.63,10,10,10,21,10,26,0.00,0,,220
2012-10-18,75,61,47,51,40,29,72,47,22,30.02,29.94,29.80,10,10,10,17,7,23,0.00,0,,58
2012-10-19,83,62,40,50,43,38,92,58,23,30.08,29.98,29.87,10,10,10,14,6,18,0.00,0,,200
2012-10-20,89,74,58,65,60,48,93,66,38,29.89,29.80,29.71,10,10,8,21,11,25,0.00,1,,200
2012-10-21,89,80,71,68,65,63,84,63,41,29.86,29.78,29.73,10,10,9,23,12,30,0.00,0,,195
2012-10-22,84,75,65,68,66,61,97,78,58,29.99,29.89,29.80,10,9,2,14,5,18,0.00,5,Thunderstorm,118
2012-10-23,85,74,63,67,65,60,93,74,55,29.98,29.88,29.81,10,10,2,17,7,22,0.00,4,,179
2012-10-24,85,77,69,66,65,62,84,68,51,29.95,29.84,29.75,10,10,10,22,13,29,0.00,3,,180
2012-10-25,82,69,56,64,57,38,81,64,46,30.09,29.86,29.73,10,10,10,24,14,29,0.00,1,,195
2012-10-26,58,53,47,39,33,25,61,49,36,30.35,30.24,30.09,10,10,10,23,17,30,0.00,7,,25
2012-10-27,55,46,37,34,26,22,70,49,28,30.36,30.28,30.18,10,10,10,18,6,23,0.00,7,,45
2012-10-28,66,48,30,32,30,28,92,59,26,30.31,30.23,30.16,10,10,10,12,3,17,0.00,0,,79
2012-10-29,73,54,35,40,34,30,82,55,27,30.27,30.17,30.07,10,10,10,14,5,20,0.00,0,,173
2012-10-30,79,58,37,51,43,34,86,59,32,30.08,30.02,29.94,10,10,10,9,2,23,0.00,0,,187
2012-10-31,83,63,42,54,46,40,93,61,28,30.09,30.03,29.98,10,10,10,8,3,10,0.00,0,,240